Time;durP1;ratioP1;P1;durP2;ratioP2;P2;SDS_P1;SDS_P2;PMS_P1;PMS_P2;Temp;Humidity;BMP_temperature;BMP_pressure;BME280_temperature;BME280_humidity;BME280_pressure;Samples;Min_cycle;Max_cycle;Signal;HPM_P1;HPM_P2
2022/11/17 00:00:44;;;;;;;36.83;20.17;;;;;;;6.39;97.29;96070.06;1618296;87;20995;-73
2022/11/17 00:03:15;;;;;;;34.30;19.70;;;;;;;6.39;97.11;96072.70;1605694;88;21385;-72
2022/11/17 00:05:43;;;;;;;36.05;20.20;;;;;;;6.39;97.40;96074.01;1610375;88;20983;-74
2022/11/17 00:08:09;;;;;;;34.75;20.25;;;;;;;6.38;97.42;96070.52;1605778;87;21019;-72
2022/11/17 00:10:39;;;;;;;37.08;19.92;;;;;;;6.38;97.22;96069.20;1605414;88;21020;-74
2022/11/17 00:15:50;;;;;;;35.23;19.65;;;;;;;6.38;97.59;96066.56;1618412;87;21023;-72
2022/11/17 00:21:20;;;;;;;33.48;19.62;;;;;;;6.39;97.53;96060.85;1618802;88;21055;-76
2022/11/17 00:23:48;;;;;;;;;;;;;;;6.39;97.67;96065.63;1618359;87;21531;-76
2022/11/17 00:26:28;;;;;;;36.08;19.82;;;;;;;6.40;97.83;96052.03;1622386;88;20144;-75
2022/11/17 00:28:59;;;;;;;35.30;19.55;;;;;;;6.37;97.68;96051.70;1604030;89;21048;-76
2022/11/17 00:34:20;;;;;;;39.38;19.48;;;;;;;6.38;97.55;96054.72;1606733;89;21019;-75
2022/11/17 00:36:51;;;;;;;43.75;21.10;;;;;;;6.39;97.74;96055.11;1606836;89;21122;-75
2022/11/17 00:39:21;;;;;;;36.75;20.57;;;;;;;6.45;97.46;96056.62;1612745;89;21052;-76
2022/11/17 00:41:47;;;;;;;34.80;21.17;;;;;;;6.49;97.35;96045.05;1609097;89;20999;-76
2022/11/17 00:44:15;;;;;;;39.98;20.90;;;;;;;6.54;97.47;96040.43;1602788;89;21031;-75
2022/11/17 00:46:42;;;;;;;36.77;20.48;;;;;;;6.59;97.58;96032.31;1590218;89;21064;-76
2022/11/17 00:49:10;;;;;;;32.45;18.82;;;;;;;6.65;97.80;96039.95;1594608;89;21017;-75
2022/11/17 00:51:38;;;;;;;32.45;18.80;;;;;;;6.72;97.79;96029.97;1589579;89;21019;-76
2022/11/17 00:54:10;;;;;;;33.00;18.80;;;;;;;6.77;97.82;96036.36;1592217;89;21011;-76
2022/11/17 00:56:36;;;;;;;31.55;18.00;;;;;;;6.82;97.87;96023.83;1597067;89;21020;-76
2022/11/17 00:59:06;;;;;;;31.33;16.82;;;;;;;6.87;97.98;96023.16;1608050;89;21431;-75
2022/11/17 01:01:33;;;;;;;27.77;17.10;;;;;;;6.92;97.69;96019.84;1600397;89;21344;-76
2022/11/17 01:04:06;;;;;;;28.25;16.82;;;;;;;6.97;98.09;96003.36;1607572;89;21548;-76
2022/11/17 01:06:37;;;;;;;25.32;16.15;;;;;;;7.05;98.13;96000.36;1613707;88;21600;-76
2022/11/17 01:09:12;;;;;;;27.27;16.20;;;;;;;7.14;98.07;96013.55;1595935;89;21040;-75
2022/11/17 01:11:39;;;;;;;29.30;17.17;;;;;;;7.15;97.45;96006.05;1608791;88;21029;-76
2022/11/17 01:14:10;;;;;;;29.50;17.57;;;;;;;7.16;97.43;96000.30;1599210;89;21485;-76
2022/11/17 01:16:37;;;;;;;26.52;15.90;;;;;;;7.23;97.84;95990.71;1612288;89;21091;-76
2022/11/17 01:19:03;;;;;;;24.85;15.98;;;;;;;7.26;97.51;95985.30;1613206;88;21071;-76
2022/11/17 01:21:31;;;;;;;36.83;16.40;;;;;;;7.30;97.72;95985.16;1613489;88;21015;-76
2022/11/17 01:24:00;;;;;;;29.05;16.32;;;;;;;7.31;97.72;95981.11;1614375;87;21046;-77
2022/11/17 01:26:34;;;;;;;26.25;17.23;;;;;;;7.36;98.06;95980.91;1624725;88;20980;-76
2022/11/17 01:29:04;;;;;;;29.07;16.57;;;;;;;7.35;97.81;95982.67;1624655;87;21144;-76
2022/11/17 01:31:34;;;;;;;29.20;16.48;;;;;;;7.32;97.19;95977.58;1621223;87;21006;-76
2022/11/17 01:34:01;;;;;;;28.50;17.98;;;;;;;7.28;97.12;95973.83;1624144;87;21598;-76
2022/11/17 01:39:18;;;;;;;31.73;17.02;;;;;;;7.21;97.06;95960.97;1625353;87;21055;-76
2022/11/17 01:41:46;;;;;;;33.15;17.73;;;;;;;7.20;97.20;95960.58;1624890;88;20968;-76
2022/11/17 01:44:58;;;;;;;31.68;18.23;;;;;;;7.16;97.19;95959.02;1625394;88;21084;-76
2022/11/17 01:47:39;;;;;;;30.08;18.15;;;;;;;7.15;97.04;95952.50;1625158;87;21067;-76
2022/11/17 01:50:29;;;;;;;29.60;17.35;;;;;;;7.07;96.78;95944.53;1624781;88;21050;-76
2022/11/17 01:52:58;;;;;;;27.85;16.75;;;;;;;7.04;97.09;95945.11;1613029;88;21034;-76
2022/11/17 01:55:40;;;;;;;27.48;17.27;;;;;;;6.98;97.36;95940.53;1625295;87;21026;-76
2022/11/17 01:58:12;;;;;;;28.62;16.80;;;;;;;6.94;97.12;95937.66;1625054;87;21032;-77
2022/11/17 02:00:39;;;;;;;30.02;16.97;;;;;;;6.90;96.94;95941.84;1624129;87;21024;-76
2022/11/17 02:03:08;;;;;;;28.95;16.50;;;;;;;6.84;97.04;95934.62;1623985;87;21031;-76
2022/11/17 02:05:46;;;;;;;31.48;17.50;;;;;;;6.80;97.19;95931.75;1625132;87;20995;-76
2022/11/17 02:08:15;;;;;;;28.65;17.67;;;;;;;6.78;97.28;95932.30;1625067;86;21026;-76
2022/11/17 02:10:42;;;;;;;30.70;17.45;;;;;;;6.77;97.28;95930.56;1624883;87;21460;-76
2022/11/17 02:13:10;;;;;;;25.88;16.75;;;;;;;6.77;97.37;95923.15;1625119;87;20980;-76
2022/11/17 02:15:36;;;;;;;28.65;18.30;;;;;;;6.76;97.40;95918.81;1624189;88;20995;-76
2022/11/17 02:18:04;;;;;;;26.17;16.82;;;;;;;6.72;97.33;95925.98;1624914;87;21054;-76
2022/11/17 02:20:54;;;;;;;26.65;16.80;;;;;;;6.69;97.42;95915.62;1625168;87;21011;-76
2022/11/17 02:23:58;;;;;;;29.92;17.65;;;;;;;6.67;97.42;95910.42;1619419;87;21064;-76
2022/11/17 02:26:51;;;;;;;29.87;18.30;;;;;;;6.66;97.61;95913.13;1609480;89;20980;-76
2022/11/17 02:29:35;;;;;;;27.40;16.77;;;;;;;6.64;97.52;95912.36;1613531;88;21143;-75
2022/11/17 02:32:15;;;;;;;26.07;17.05;;;;;;;6.63;97.77;95913.26;1598108;89;21457;-76
2022/11/17 02:34:47;;;;;;;32.38;18.15;;;;;;;6.62;97.80;95907.16;1613691;89;21064;-76
2022/11/17 02:37:34;;;;;;;29.25;16.85;;;;;;;6.63;97.90;95909.31;1613823;89;21051;-75
2022/11/17 02:40:20;;;;;;;29.77;17.62;;;;;;;6.62;97.69;95912.42;1613366;89;21095;-76
2022/11/17 02:45:48;;;;;;;30.02;17.42;;;;;;;6.63;97.94;95902.28;1579670;90;21440;-76
2022/11/17 02:48:26;;;;;;;30.50;18.00;;;;;;;6.63;97.97;95897.47;1611729;87;21058;-76
2022/11/17 02:50:54;;;;;;;29.80;18.52;;;;;;;6.63;97.71;95904.05;1580066;90;21036;-76
2022/11/17 02:53:23;;;;;;;31.48;18.67;;;;;;;6.59;97.91;95897.62;1613807;89;21020;-76
2022/11/17 02:55:53;;;;;;;31.68;19.20;;;;;;;6.57;98.16;95898.14;1597420;90;21040;-76
2022/11/17 02:58:20;;;;;;;32.25;18.60;;;;;;;6.56;98.13;95896.45;1592893;89;21015;-76
2022/11/17 03:01:15;;;;;;;31.48;18.25;;;;;;;6.55;98.17;95888.17;1576245;90;21040;-76
2022/11/17 03:03:45;;;;;;;;;;;;;;;6.59;97.98;95891.50;1615932;87;21110;-75
2022/11/17 03:06:43;;;;;;;41.98;21.70;;;;;;;6.64;97.84;95892.13;1613562;89;20431;-76
2022/11/17 03:09:20;;;;;;;41.33;22.87;;;;;;;6.67;98.00;95888.05;1613666;89;21039;-76
2022/11/17 03:12:19;;;;;;;47.80;22.32;;;;;;;6.71;97.79;95884.34;1590063;89;21011;-76
2022/11/17 03:14:54;;;;;;;33.40;19.37;;;;;;;6.77;97.98;95879.23;1613661;89;21600;-77
2022/11/17 03:17:58;;;;;;;36.83;19.62;;;;;;;6.82;98.22;95880.34;1605560;89;21073;-76
2022/11/17 03:20:33;;;;;;;36.28;19.52;;;;;;;6.89;98.31;95881.73;1582899;90;21020;-76
2022/11/17 03:23:17;;;;;;;35.15;19.25;;;;;;;6.94;97.98;95871.82;1591532;88;21079;-75
2022/11/17 03:25:50;;;;;;;35.60;19.25;;;;;;;6.99;98.06;95868.49;1624658;88;21070;-76
2022/11/17 03:28:21;;;;;;;32.90;18.60;;;;;;;7.07;98.68;95866.83;1650539;87;21087;-76
2022/11/17 03:30:51;;;;;;;31.25;18.23;;;;;;;7.19;99.00;95867.12;1650586;87;21071;-75
2022/11/17 03:33:21;;;;;;;34.48;18.92;;;;;;;7.24;98.57;95864.66;1643240;87;21394;-76
2022/11/17 03:35:56;;;;;;;35.92;19.95;;;;;;;7.29;98.23;95863.55;1643143;87;21020;-76
2022/11/17 03:38:27;;;;;;;35.68;20.02;;;;;;;7.30;97.86;95851.62;1643156;87;21466;-76
2022/11/17 03:40:55;;;;;;;33.98;19.85;;;;;;;7.33;98.13;95850.61;1643145;87;20985;-76
2022/11/17 03:43:24;;;;;;;34.00;19.67;;;;;;;7.43;98.85;95856.27;1643124;87;21007;-76
2022/11/17 03:45:55;;;;;;;33.50;19.73;;;;;;;7.46;97.97;95849.50;1643277;87;21016;-76
2022/11/17 03:48:39;;;;;;;35.98;19.85;;;;;;;7.48;97.99;95842.39;1643185;87;20988;-76
2022/11/17 03:51:16;;;;;;;37.80;19.27;;;;;;;7.55;98.15;95841.61;1643184;87;21044;-76
2022/11/17 03:53:44;;;;;;;34.85;20.20;;;;;;;7.56;97.67;95840.67;1642378;87;20996;-76
2022/11/17 03:57:03;;;;;;;37.98;21.42;;;;;;;7.57;98.11;95837.09;1643162;87;21083;-77
2022/11/17 03:59:50;;;;;;;40.20;20.55;;;;;;;7.58;97.95;95824.30;1633167;87;21019;-77
2022/11/17 04:02:20;;;;;;;38.45;21.00;;;;;;;7.57;97.77;95833.14;1638072;87;21067;-78
2022/11/17 04:05:08;;;;;;;37.65;21.00;;;;;;;7.52;97.55;95833.40;1642302;87;21040;-78
2022/11/17 04:07:15;;;;;;;44.53;22.98;;;;;;;7.49;97.33;95825.64;1630265;87;21075;-78
2022/11/17 04:09:41;;;;;;;41.92;22.32;;;;;;;7.48;97.65;95824.77;1643293;87;21008;-77
2022/11/17 04:17:38;;;;;;;47.90;24.25;;;;;;;7.38;97.60;95833.64;1643379;87;21080;-76
2022/11/17 04:20:08;;;;;;;41.60;23.22;;;;;;;7.34;97.45;95839.99;1639308;87;21051;-76
2022/11/17 04:22:34;;;;;;;43.98;24.77;;;;;;;7.31;97.59;95836.67;1630555;87;21443;-76
2022/11/17 04:25:01;;;;;;;47.60;25.00;;;;;;;7.24;97.23;95839.63;1630599;87;21060;-76
2022/11/17 04:30:12;;;;;;;;;;;;;;;7.12;96.98;95843.73;1628741;88;21013;-75
2022/11/17 04:32:38;;;;;;;46.88;22.67;;;;;;;6.99;97.15;95836.06;1626420;88;20125;-76
2022/11/17 04:35:06;;;;;;;43.52;22.05;;;;;;;6.91;97.23;95840.84;1637437;87;21068;-77
2022/11/17 04:37:33;;;;;;;45.78;22.30;;;;;;;6.82;97.32;95835.58;1637303;87;21072;-75
2022/11/17 04:39:59;;;;;;;47.33;21.97;;;;;;;6.77;97.42;95834.95;1637401;87;21029;-75
2022/11/17 04:42:26;;;;;;;52.13;23.45;;;;;;;6.73;97.40;95830.31;1637456;87;21052;-77
2022/11/17 04:44:54;;;;;;;52.40;22.77;;;;;;;6.72;97.32;95833.84;1636406;88;21063;-77
2022/11/17 04:47:20;;;;;;;54.08;23.73;;;;;;;6.65;97.76;95834.64;1637426;87;20993;-79
2022/11/17 04:49:46;;;;;;;51.45;23.95;;;;;;;6.62;97.42;95832.14;1634592;87;21028;-77
2022/11/17 04:52:13;;;;;;;47.17;22.25;;;;;;;6.58;97.83;95827.50;1636387;88;21085;-77
2022/11/17 04:54:39;;;;;;;52.13;23.07;;;;;;;6.57;97.72;95817.05;1637498;87;20977;-79
2022/11/17 04:57:06;;;;;;;51.95;23.75;;;;;;;6.54;97.80;95823.77;1637589;87;21023;-78
2022/11/17 04:59:32;;;;;;;53.95;23.22;;;;;;;6.52;97.68;95832.20;1636494;87;21021;-77
2022/11/17 05:01:59;;;;;;;45.50;22.40;;;;;;;6.49;97.85;95824.45;1637332;87;21454;-78
2022/11/17 05:07:10;;;;;;;54.58;23.40;;;;;;;6.46;97.90;95826.77;1636467;87;20988;-77
2022/11/17 05:09:37;;;;;;;51.95;23.02;;;;;;;6.46;98.12;95829.39;1637408;87;21068;-77
2022/11/17 05:14:52;;;;;;;48.30;22.25;;;;;;;6.45;98.06;95826.38;1637560;88;21080;-78
2022/11/17 05:17:19;;;;;;;46.37;22.40;;;;;;;6.45;98.36;95829.84;1637412;87;21060;-77
2022/11/17 05:19:47;;;;;;;50.23;23.07;;;;;;;6.44;98.63;95826.00;1637097;87;21121;-77
2022/11/17 05:25:08;;;;;;;49.83;22.37;;;;;;;6.44;98.15;95827.31;1618992;88;20981;-77
2022/11/17 05:27:36;;;;;;;55.25;24.12;;;;;;;6.43;98.26;95821.19;1630322;88;21056;-76
2022/11/17 05:30:06;;;;;;;47.60;22.27;;;;;;;6.46;98.18;95828.95;1631180;88;21052;-77
2022/11/17 05:32:33;;;;;;;43.98;21.37;;;;;;;6.48;98.35;95824.93;1631164;87;21499;-76
2022/11/17 05:34:59;;;;;;;41.00;20.05;;;;;;;6.50;98.37;95825.70;1631157;87;20973;-77
2022/11/17 05:37:26;;;;;;;38.65;19.90;;;;;;;6.53;98.54;95828.64;1631027;88;21021;-76
2022/11/17 05:39:52;;;;;;;34.67;18.98;;;;;;;6.54;98.64;95830.34;1631059;87;21032;-77
2022/11/17 05:42:19;;;;;;;36.90;20.43;;;;;;;6.52;98.69;95826.45;1625905;87;21048;-76
2022/11/17 05:44:47;;;;;;;36.23;18.73;;;;;;;6.54;98.80;95828.57;1621986;88;21080;-77
2022/11/17 05:47:13;;;;;;;35.92;18.62;;;;;;;6.57;98.91;95831.03;1629626;88;21481;-76
2022/11/17 05:49:43;;;;;;;35.23;19.92;;;;;;;6.57;98.88;95829.72;1627862;87;21068;-76
2022/11/17 05:52:09;;;;;;;36.25;19.90;;;;;;;6.61;98.98;95837.03;1626919;88;21037;-77
2022/11/17 05:54:36;;;;;;;35.17;20.20;;;;;;;6.61;99.13;95839.66;1631289;87;21008;-76
2022/11/17 05:57:08;;;;;;;35.25;18.30;;;;;;;6.64;98.83;95840.80;1631007;87;21395;-76
2022/11/17 05:59:48;;;;;;;35.43;19.87;;;;;;;6.65;98.99;95841.22;1630997;87;21016;-77
2022/11/17 06:02:23;;;;;;;34.55;18.90;;;;;;;6.68;98.98;95829.69;1630965;87;21032;-76
2022/11/17 06:04:50;;;;;;;35.55;19.23;;;;;;;6.72;99.02;95844.38;1631185;88;21044;-77
2022/11/17 06:07:19;;;;;;;32.05;18.17;;;;;;;6.74;98.81;95837.28;1631323;88;21036;-77
2022/11/17 06:09:46;;;;;;;33.38;19.10;;;;;;;6.75;98.77;95838.97;1631382;88;21435;-77
2022/11/17 06:12:14;;;;;;;31.05;18.05;;;;;;;6.79;99.06;95833.09;1631354;87;21025;-77
2022/11/17 06:14:40;;;;;;;31.73;17.32;;;;;;;6.84;98.87;95836.34;1631241;88;21321;-77
2022/11/17 06:17:18;;;;;;;29.80;16.97;;;;;;;6.90;98.85;95837.83;1629418;88;21454;-77
2022/11/17 06:19:48;;;;;;;31.40;17.85;;;;;;;6.92;98.77;95843.41;1641144;87;21067;-76
2022/11/17 06:22:15;;;;;;;32.20;18.57;;;;;;;6.92;98.43;95847.36;1646421;87;21048;-75
2022/11/17 06:24:44;;;;;;;29.37;17.90;;;;;;;6.89;98.49;95850.13;1648747;87;21063;-76
2022/11/17 06:27:13;;;;;;;32.80;18.55;;;;;;;6.89;98.33;95852.77;1654219;87;21410;-77
2022/11/17 06:29:39;;;;;;;30.95;18.82;;;;;;;6.93;98.73;95850.38;1654160;87;21008;-77
2022/11/17 06:32:06;;;;;;;35.52;19.37;;;;;;;6.91;97.97;95845.66;1640557;87;21024;-77
2022/11/17 06:34:33;;;;;;;34.53;19.37;;;;;;;6.89;98.02;95841.40;1647598;87;21476;-76
2022/11/17 06:37:00;;;;;;;35.55;18.85;;;;;;;6.86;98.00;95845.87;1644743;87;21074;-76
2022/11/17 06:39:27;;;;;;;32.90;19.95;;;;;;;6.85;98.12;95842.86;1640379;87;21047;-77
2022/11/17 06:41:53;;;;;;;34.50;20.00;;;;;;;6.86;98.09;95831.87;1638998;87;21063;-77
2022/11/17 06:44:20;;;;;;;30.75;19.32;;;;;;;6.85;98.04;95837.59;1640127;87;21059;-77
2022/11/17 06:46:46;;;;;;;38.23;20.48;;;;;;;6.84;97.92;95839.84;1640474;87;21039;-76
2022/11/17 06:49:17;;;;;;;31.50;18.77;;;;;;;6.86;98.03;95840.60;1634867;87;21076;-77
2022/11/17 06:51:45;;;;;;;35.45;18.95;;;;;;;6.88;98.10;95849.75;1638596;87;21000;-76
2022/11/17 06:54:14;;;;;;;31.82;19.45;;;;;;;6.92;98.12;95855.26;1642869;87;21442;-76
2022/11/17 06:56:42;;;;;;;37.17;20.00;;;;;;;6.90;97.83;95856.27;1632362;87;21016;-78
2022/11/17 06:59:09;;;;;;;37.85;20.15;;;;;;;6.89;97.73;95863.30;1635528;87;21048;-75
2022/11/17 07:01:37;;;;;;;34.75;20.02;;;;;;;6.86;97.95;95859.03;1634291;87;21422;-75
2022/11/17 07:04:06;;;;;;;34.35;20.20;;;;;;;6.85;97.89;95855.19;1633152;87;21399;-76
2022/11/17 07:06:37;;;;;;;36.53;20.23;;;;;;;6.89;98.30;95856.71;1639093;87;21457;-76
2022/11/17 07:09:05;;;;;;;35.52;20.77;;;;;;;6.93;98.10;95864.86;1633315;87;20976;-76
2022/11/17 07:11:37;;;;;;;39.03;21.52;;;;;;;6.94;98.02;95856.02;1639969;87;21497;-75
2022/11/17 07:14:03;;;;;;;34.00;20.37;;;;;;;6.94;97.88;95855.19;1623388;87;21016;-76
2022/11/17 07:16:31;;;;;;;36.10;21.57;;;;;;;6.94;97.81;95856.02;1622145;87;20993;-76
2022/11/17 07:19:02;;;;;;;33.98;20.95;;;;;;;6.95;97.83;95854.25;1624354;87;21497;-76
2022/11/17 07:21:28;;;;;;;35.33;20.90;;;;;;;6.95;97.64;95859.52;1629248;87;21008;-76
2022/11/17 07:23:57;;;;;;;36.65;22.05;;;;;;;6.93;97.55;95859.59;1625254;87;21885;-74
2022/11/17 07:26:24;;;;;;;38.75;21.80;;;;;;;6.93;97.58;95861.39;1615003;87;21052;-75
2022/11/17 07:28:53;;;;;;;38.90;23.25;;;;;;;6.92;97.78;95860.52;1608303;88;21073;-75
2022/11/17 07:31:19;;;;;;;35.73;21.02;;;;;;;6.91;97.70;95854.87;1609990;88;21025;-75
2022/11/17 07:33:45;;;;;;;37.48;22.40;;;;;;;6.91;97.76;95865.41;1605071;88;21474;-75
2022/11/17 07:36:14;;;;;;;40.52;23.55;;;;;;;6.90;97.78;95859.77;1616828;88;21084;-76
2022/11/17 07:38:40;;;;;;;38.95;22.93;;;;;;;6.92;97.77;95868.88;1625331;88;20974;-75
2022/11/17 07:41:10;;;;;;;36.17;20.88;;;;;;;6.89;98.17;95871.20;1617288;88;21108;-76
2022/11/17 07:43:36;;;;;;;36.35;20.75;;;;;;;6.89;97.66;95874.31;1595158;88;21076;-76
2022/11/17 07:46:09;;;;;;;33.98;19.05;;;;;;;6.85;97.54;95871.82;1613719;88;21068;-75
2022/11/17 07:48:36;;;;;;;32.83;19.37;;;;;;;6.84;97.47;95876.70;1614792;88;21004;-75
2022/11/17 07:51:05;;;;;;;32.90;18.75;;;;;;;6.79;97.53;95878.71;1614577;88;21005;-76
2022/11/17 07:53:35;;;;;;;37.45;19.77;;;;;;;6.75;97.81;95879.78;1621793;88;21039;-76
2022/11/17 07:56:08;;;;;;;33.95;19.35;;;;;;;6.74;97.65;95882.86;1611821;88;21104;-76
2022/11/17 07:58:35;;;;;;;30.62;19.10;;;;;;;6.78;97.71;95889.31;1625918;88;21028;-76
2022/11/17 08:01:08;;;;;;;33.38;19.57;;;;;;;6.83;97.65;95882.03;1623996;88;21013;-76
2022/11/17 08:03:36;;;;;;;29.85;18.67;;;;;;;6.91;97.67;95880.34;1622598;88;21486;-75
2022/11/17 08:06:06;;;;;;;32.03;19.67;;;;;;;6.99;97.72;95889.56;1619405;88;21072;-75
2022/11/17 08:08:36;;;;;;;30.95;19.00;;;;;;;7.09;97.70;95889.11;1633519;88;21482;-75
2022/11/17 08:11:06;;;;;;;32.55;18.40;;;;;;;7.15;97.33;95886.65;1633448;87;20989;-75
2022/11/17 08:13:34;;;;;;;35.05;20.90;;;;;;;7.24;97.67;95884.87;1630909;87;21032;-75
2022/11/17 08:16:01;;;;;;;30.75;18.73;;;;;;;7.36;97.67;95886.87;1632363;88;21001;-76
2022/11/17 08:18:29;;;;;;;30.30;18.02;;;;;;;7.48;97.55;95887.20;1632861;88;21021;-75
2022/11/17 08:21:12;;;;;;;33.28;18.77;;;;;;;7.59;97.00;95887.94;1631192;88;21056;-76
2022/11/17 08:23:40;;;;;;;35.73;20.23;;;;;;;7.67;97.07;95884.45;1625472;86;21048;-75
2022/11/17 08:26:11;;;;;;;29.98;19.17;;;;;;;7.78;96.64;95891.32;1630897;88;21486;-77
2022/11/17 08:28:38;;;;;;;28.73;18.02;;;;;;;7.86;96.60;95887.45;1624534;87;21449;-77
2022/11/17 08:31:07;;;;;;;32.63;19.60;;;;;;;7.92;96.46;95887.11;1629722;88;21471;-76
2022/11/17 08:33:33;;;;;;;28.55;17.73;;;;;;;7.96;96.24;95888.66;1621937;88;21438;-75
2022/11/17 08:36:03;;;;;;;30.20;19.12;;;;;;;7.97;95.80;95887.72;1627614;87;21036;-78
2022/11/17 08:38:30;;;;;;;29.05;18.52;;;;;;;8.00;95.67;95882.30;1624882;87;21131;-75
2022/11/17 08:41:01;;;;;;;28.57;18.05;;;;;;;8.04;94.95;95887.80;1629463;86;21024;-76
2022/11/17 08:43:28;;;;;;;27.27;18.50;;;;;;;8.09;95.43;95892.81;1638440;86;21065;-76
2022/11/17 08:45:56;;;;;;;28.50;19.25;;;;;;;8.14;95.31;95889.45;1634683;88;21064;-75
2022/11/17 08:48:24;;;;;;;31.30;19.90;;;;;;;8.19;95.29;95901.09;1636074;87;21028;-76
2022/11/17 08:50:51;;;;;;;30.48;22.10;;;;;;;8.23;95.24;95902.64;1628616;87;21446;-71
2022/11/17 08:53:21;;;;;;;31.87;20.25;;;;;;;8.26;95.34;95898.50;1624537;86;21035;-72
2022/11/17 08:55:49;;;;;;;33.48;21.60;;;;;;;8.29;94.61;95894.84;1631948;86;21012;-73
2022/11/17 08:58:18;;;;;;;28.60;19.60;;;;;;;8.32;95.27;95897.33;1626988;87;21020;-72
2022/11/17 09:00:50;;;;;;;34.35;21.33;;;;;;;8.36;95.04;95895.36;1605224;89;21449;-72
2022/11/17 09:03:16;;;;;;;30.90;20.50;;;;;;;8.41;95.13;95902.56;1618468;88;21032;-71
2022/11/17 09:05:48;;;;;;;102.27;55.45;;;;;;;8.45;95.27;95897.50;1622817;88;20985;-71
2022/11/17 09:08:16;;;;;;;47.60;29.05;;;;;;;8.48;95.18;95901.30;1623222;88;21044;-72
2022/11/17 09:10:48;;;;;;;31.50;19.32;;;;;;;8.53;95.24;95906.34;1625741;87;21048;-72
2022/11/17 09:13:15;;;;;;;29.07;18.55;;;;;;;8.60;95.35;95910.38;1632858;86;21000;-70
2022/11/17 09:15:42;;;;;;;28.52;19.12;;;;;;;8.62;95.25;95909.80;1634081;88;21049;-70
2022/11/17 09:18:08;;;;;;;28.80;18.55;;;;;;;8.66;95.15;95896.82;1637365;87;21004;-71
2022/11/17 09:20:35;;;;;;;33.88;18.40;;;;;;;8.67;95.40;95898.52;1637539;87;21048;-71
2022/11/17 09:23:02;;;;;;;28.30;17.95;;;;;;;8.70;95.50;95900.13;1635417;88;21032;-71
2022/11/17 09:25:30;;;;;;;27.32;16.57;;;;;;;8.73;95.65;95900.42;1620657;87;21165;-72
2022/11/17 09:27:56;;;;;;;20.48;12.78;;;;;;;8.74;95.54;95902.13;1579425;90;21056;-71
2022/11/17 09:30:23;;;;;;;11.50;8.80;;;;;;;8.76;95.98;95901.59;1592589;89;21032;-71
2022/11/17 09:32:51;;;;;;;11.93;7.70;;;;;;;8.79;95.72;95903.58;1595942;89;21032;-71
2022/11/17 09:35:18;;;;;;;6.55;4.92;;;;;;;8.84;95.66;95906.81;1593828;89;21057;-72
2022/11/17 09:37:45;;;;;;;6.55;4.95;;;;;;;8.91;95.64;95906.45;1599170;89;21072;-71
2022/11/17 09:40:19;;;;;;;6.03;4.10;;;;;;;9.01;95.95;95897.55;1583797;90;21118;-73
2022/11/17 09:42:46;;;;;;;2.90;2.37;;;;;;;9.15;96.04;95895.43;1582272;90;22176;-73
2022/11/17 09:45:21;;;;;;;3.92;3.00;;;;;;;9.30;95.67;95900.31;1600458;89;21048;-73
2022/11/17 09:47:56;;;;;;;2.65;2.10;;;;;;;9.45;95.65;95902.51;1589713;89;21075;-73
2022/11/17 09:50:36;;;;;;;2.90;1.87;;;;;;;9.63;95.42;95905.39;1575798;90;21099;-73
2022/11/17 09:53:20;;;;;;;2.80;1.60;;;;;;;9.85;95.03;95903.26;1564281;90;21049;-73
2022/11/17 09:55:51;;;;;;;2.40;1.40;;;;;;;10.06;94.84;95899.78;1589972;89;21124;-73
2022/11/17 09:58:50;;;;;;;2.87;1.57;;;;;;;10.26;93.93;95900.34;1564174;90;21037;-73
2022/11/17 10:01:20;;;;;;;1.40;1.10;;;;;;;10.40;93.63;95899.47;1590213;89;21096;-73
2022/11/17 10:03:49;;;;;;;1.77;1.10;;;;;;;10.42;92.06;95902.86;1574532;90;21050;-74
2022/11/17 10:06:22;;;;;;;1.70;1.10;;;;;;;10.48;92.67;95909.16;1563058;90;21081;-73
2022/11/17 10:09:23;;;;;;;2.25;1.20;;;;;;;10.50;90.38;95917.84;1590286;89;21070;-73
2022/11/17 10:11:49;;;;;;;1.92;1.25;;;;;;;10.50;89.84;95913.87;1582097;90;21096;-73
2022/11/17 10:14:21;;;;;;;2.02;1.30;;;;;;;10.55;89.15;95914.92;1614130;89;20999;-73
2022/11/17 10:16:57;;;;;;;1.62;1.12;;;;;;;10.64;89.44;95934.66;1597560;90;21040;-75
2022/11/17 10:19:29;;;;;;;1.75;1.12;;;;;;;10.66;86.91;95929.65;1606427;89;21068;-71
2022/11/17 10:22:07;;;;;;;1.57;1.10;;;;;;;10.74;89.06;95929.63;1609640;89;21031;-73
2022/11/17 10:24:40;;;;;;;1.82;1.25;;;;;;;10.71;86.00;95930.66;1595451;90;21077;-72
2022/11/17 10:27:30;;;;;;;1.80;1.10;;;;;;;10.69;87.62;95943.17;1589289;90;21044;-72
2022/11/17 10:30:20;;;;;;;1.52;1.10;;;;;;;10.64;86.87;95940.83;1631080;88;21421;-71
2022/11/17 10:32:51;;;;;;;1.10;0.90;;;;;;;10.53;83.96;95936.20;1639901;87;21020;-71
2022/11/17 10:35:31;;;;;;;1.85;1.45;;;;;;;10.48;84.97;95949.34;1637047;86;21000;-72
2022/11/17 10:38:06;;;;;;;1.95;1.25;;;;;;;10.37;84.15;95942.02;1623517;87;21012;-72
2022/11/17 10:40:41;;;;;;;2.35;1.50;;;;;;;10.30;84.44;95943.73;1627888;87;21054;-73
2022/11/17 10:43:16;;;;;;;1.95;1.30;;;;;;;10.24;84.64;95957.81;1632202;87;21493;-72
2022/11/17 10:45:45;;;;;;;20.75;12.90;;;;;;;10.17;84.76;95959.98;1640227;87;21030;-73
2022/11/17 10:48:33;;;;;;;5.78;3.40;;;;;;;10.12;84.92;95976.61;1652076;87;21050;-72
2022/11/17 10:51:03;;;;;;;2.37;1.60;;;;;;;10.05;84.31;95970.83;1638465;85;21453;-72
2022/11/17 10:53:40;;;;;;;2.02;1.50;;;;;;;9.96;84.16;95980.19;1646838;85;21083;-72
2022/11/17 10:56:15;;;;;;;2.25;1.60;;;;;;;9.87;83.79;95980.27;1647620;87;21066;-73
2022/11/17 10:59:11;;;;;;;1.92;1.62;;;;;;;9.80;84.53;95985.53;1650115;87;21031;-72
2022/11/17 11:01:43;;;;;;;1.87;1.22;;;;;;;9.76;84.11;95987.51;1651535;87;21032;-72
2022/11/17 11:04:34;;;;;;;1.70;1.32;;;;;;;9.66;83.55;95984.16;1650640;87;21068;-72
2022/11/17 11:07:20;;;;;;;1.72;1.30;;;;;;;9.62;84.23;95992.30;1643946;85;21040;-72
2022/11/17 11:09:56;;;;;;;2.35;1.55;;;;;;;9.55;83.94;96001.51;1642361;87;21097;-72
2022/11/17 11:12:37;;;;;;;1.57;1.20;;;;;;;9.53;84.19;96015.30;1646701;85;21035;-71
2022/11/17 11:15:14;;;;;;;1.95;1.47;;;;;;;9.48;84.63;96007.61;1635859;86;21130;-72
2022/11/17 11:17:41;;;;;;;1.72;1.40;;;;;;;9.43;84.78;96010.99;1637204;87;21031;-72
2022/11/17 11:20:15;;;;;;;1.45;1.17;;;;;;;9.42;84.32;96010.62;1644746;87;21047;-71
2022/11/17 11:23:17;;;;;;;1.87;1.40;;;;;;;9.37;84.64;96014.86;1649486;87;21071;-72
2022/11/17 11:26:15;;;;;;;2.15;1.50;;;;;;;9.31;84.37;96007.74;1644503;87;21063;-72
2022/11/17 11:29:16;;;;;;;1.85;1.40;;;;;;;9.29;83.75;96020.17;1637745;87;21036;-72
2022/11/17 11:32:07;;;;;;;1.40;1.30;;;;;;;9.31;84.43;96015.22;1641677;87;21091;-73
2022/11/17 11:34:55;;;;;;;2.02;1.52;;;;;;;9.40;84.94;96019.58;1643982;87;21059;-73
2022/11/17 11:37:29;;;;;;;1.60;1.45;;;;;;;9.46;85.37;96031.98;1588167;89;21038;-73
2022/11/17 11:40:04;;;;;;;1.98;1.50;;;;;;;9.54;85.59;96022.28;1592802;90;21096;-72
2022/11/17 11:42:57;;;;;;;2.00;1.75;;;;;;;9.61;84.74;96024.11;1612621;88;21091;-72
2022/11/17 11:46:07;;;;;;;2.08;1.50;;;;;;;9.67;84.59;96026.89;1606244;88;21032;-73
2022/11/17 11:48:39;;;;;;;1.98;1.77;;;;;;;9.72;85.14;96026.98;1620656;88;21055;-73
2022/11/17 11:51:18;;;;;;;11.30;7.17;;;;;;;9.78;84.99;96032.40;1620303;88;21071;-73
2022/11/17 11:54:05;;;;;;;4.03;2.87;;;;;;;9.78;84.37;96028.43;1630829;87;21119;-72
2022/11/17 11:56:43;;;;;;;5.28;3.40;;;;;;;9.71;84.36;96029.25;1615500;88;21068;-72
2022/11/17 11:59:47;;;;;;;3.77;2.72;;;;;;;9.69;84.40;96023.67;1622432;88;21065;-72
2022/11/17 12:02:19;;;;;;;3.55;2.65;;;;;;;9.69;84.58;96032.92;1622973;88;21032;-72
2022/11/17 12:05:30;;;;;;;3.15;2.25;;;;;;;9.64;84.11;96052.55;1603451;88;20991;-73
2022/11/17 12:08:37;;;;;;;3.15;2.40;;;;;;;9.57;83.70;96033.16;1585433;90;21081;-73
2022/11/17 12:13:58;;;;;;;3.30;2.70;;;;;;;9.39;83.42;96039.89;1622367;88;21592;-72
2022/11/17 12:16:34;;;;;;;2.72;2.25;;;;;;;9.35;83.47;96041.00;1629735;88;20965;-72
2022/11/17 12:19:01;;;;;;;4.20;2.40;;;;;;;9.31;83.38;96049.58;1581746;90;21023;-72
2022/11/17 12:21:30;;;;;;;3.25;2.50;;;;;;;9.23;83.45;96047.34;1597152;90;21081;-72
2022/11/17 12:24:17;;;;;;;3.15;2.33;;;;;;;9.21;83.95;96047.91;1611709;88;21119;-72
2022/11/17 12:26:44;;;;;;;4.65;2.50;;;;;;;9.22;83.63;96051.41;1620047;87;21065;-73
2022/11/17 12:29:23;;;;;;;28.32;15.80;;;;;;;9.20;83.90;96053.27;1611204;88;21019;-74